Terminal Aerodrome Forecast
Issued by NWS Austin/San Antonio, TX

Home | Current Version | Previous Version | Text Only | Print | Product List | Glossary On
Versions: 1 2 3 4 5 6 7 8 9 10 11 12 13 14 15 16 17 18 19 20 21 22 23 24 25 26 27 28 29 30 31 32 33 34
258
FTUS44 KEWX 261402 AAC
TAFAUS
TAF AMD
KAUS 261402Z 2614/2718 03010KT 5SM BR VCSH BKN009 OVC014
     FM261600 01012KT P6SM VCSH BKN015 OVC030
     FM262100 01012G22KT P6SM OVC030
     FM270100 01012KT P6SM OVC040
     FM270400 36010KT P6SM OVC020=

USA.gov is the U.S. government's official web portal to all federal, state and local government web resources and services.